PWSweather.com
Personal Weather Stations
Station Observations
KMAMEDFI2
Medfield, MA 02052

Medfield, MA 02052

Lat: 42.1900822, Lon: -71.3296889

Elevation: 138

Station Type: Rainwise WS MK-III

http://www.medfieldweather.com

Latest ConditionsUpdated 4:40:00 PM EDT Monday, Sep 23, 2019
Currently Today's Max Today's Min Today's Average
Temperature 84.2°F29.0°C 87.1°F30.6°C 65.9°F18.8°C 74.5°F23.6°C
Dew Point 68.8°F20.4°C 71.9°F22.2°C 62.9°F17.2°C 67.7°F19.8°C
Winds 2.3 mph SW3.7 kmh SW 6.9 mph -11.1 kmh - - 2.6 mph 4.2 kmh
Wind Gusts 3.5 mph5.6 kmh 21.9 mph35.2 kmh - -
Humidity 60% 98% 52% 81%
Pressure 29.76 in1007.8 mb 29.93 in1013.5 mb 29.76 in1007.8 mb -
Hour Temp Dew Point Humidity Winds Wind Gusts Pressure Precip Precip Rate Daily Precip Total
04:40 PM 84.2°F29.0°C 68.8°F20.4°C 60% 2.3 mph SW3.7 kmh SW 3.5 mph5.6 kmh 29.76 in1007.8 mb - 0.00 in0.0 mm 0.00 in0.0 mm
04:30 PM 84.3°F29.1°C 67.9°F19.9°C 58% 2.3 mph S3.7 kmh S 8.1 mph13.0 kmh 29.77 in1008.1 mb - 0.00 in0.0 mm 0.00 in0.0 mm
04:20 PM 85.3°F29.6°C 67.9°F19.9°C 56% 2.3 mph S3.7 kmh S 9.2 mph14.8 kmh 29.77 in1008.1 mb - 0.00 in0.0 mm 0.00 in0.0 mm
04:10 PM 85.6°F29.8°C 67.6°F19.8°C 55% 3.5 mph SW5.6 kmh SW 5.8 mph9.3 kmh 29.77 in1008.1 mb - 0.00 in0.0 mm 0.00 in0.0 mm
04:00 PM 86.2°F30.1°C 68.2°F20.1°C 55% 3.5 mph WSW5.6 kmh WSW 2.3 mph3.7 kmh 29.78 in1008.5 mb - 0.00 in0.0 mm 0.00 in0.0 mm
03:50 PM 86.3°F30.2°C 68.3°F20.2°C 55% 2.3 mph SE3.7 kmh SE 5.8 mph9.3 kmh 29.78 in1008.5 mb - 0.00 in0.0 mm 0.00 in0.0 mm
03:40 PM 86.8°F30.4°C 68.2°F20.1°C 54% 2.3 mph SW3.7 kmh SW 5.8 mph9.3 kmh 29.78 in1008.5 mb - 0.00 in0.0 mm 0.00 in0.0 mm
03:30 PM 86.5°F30.3°C 68.4°F20.2°C 55% 2.3 mph NW3.7 kmh NW 2.3 mph3.7 kmh 29.78 in1008.5 mb - 0.00 in0.0 mm 0.00 in0.0 mm
03:20 PM 86.3°F30.2°C 67.7°F19.8°C 54% 3.5 mph SW5.6 kmh SW 8.1 mph13.0 kmh 29.78 in1008.5 mb - 0.00 in0.0 mm 0.00 in0.0 mm
03:10 PM 86.8°F30.4°C 68.1°F20.1°C 54% 2.3 mph S3.7 kmh S 9.2 mph14.8 kmh 29.79 in1008.8 mb - 0.00 in0.0 mm 0.00 in0.0 mm
03:00 PM 86.6°F30.3°C 68.5°F20.3°C 55% 4.6 mph SE7.4 kmh SE 6.9 mph11.1 kmh 29.79 in1008.8 mb - 0.00 in0.0 mm 0.00 in0.0 mm
02:50 PM 86.8°F30.4°C 68.2°F20.1°C 54% 3.5 mph S5.6 kmh S 5.8 mph9.3 kmh 29.79 in1008.8 mb - 0.00 in0.0 mm 0.00 in0.0 mm
02:40 PM 87.1°F30.6°C 67.4°F19.7°C 52% 6.9 mph S11.1 kmh S 21.9 mph35.2 kmh 29.79 in1008.8 mb - 0.00 in0.0 mm 0.00 in0.0 mm
02:30 PM 86.4°F30.2°C 68.3°F20.2°C 55% 5.8 mph SSW9.3 kmh SSW 6.9 mph11.1 kmh 29.79 in1008.8 mb - 0.00 in0.0 mm 0.00 in0.0 mm
02:20 PM 85.9°F29.9°C 68.9°F20.5°C 57% 2.3 mph SW3.7 kmh SW 2.3 mph3.7 kmh 29.79 in1008.8 mb - 0.00 in0.0 mm 0.00 in0.0 mm
02:10 PM 86.3°F30.2°C 68.7°F20.4°C 56% 4.6 mph SW7.4 kmh SW 8.1 mph13.0 kmh 29.79 in1008.8 mb - 0.00 in0.0 mm 0.00 in0.0 mm
02:00 PM 86.2°F30.1°C 68.7°F20.4°C 56% 4.6 mph SSE7.4 kmh SSE 9.2 mph14.8 kmh 29.79 in1008.8 mb - 0.00 in0.0 mm 0.00 in0.0 mm
01:50 PM 86.2°F30.1°C 68.7°F20.4°C 56% 3.5 mph SW5.6 kmh SW 9.2 mph14.8 kmh 29.80 in1009.1 mb - 0.00 in0.0 mm 0.00 in0.0 mm
01:40 PM 86.1°F30.1°C 67.5°F19.7°C 54% 4.6 mph WSW7.4 kmh WSW 8.1 mph13.0 kmh 29.80 in1009.1 mb - 0.00 in0.0 mm 0.00 in0.0 mm
01:30 PM 86.3°F30.2°C 68.8°F20.4°C 56% 3.5 mph SW5.6 kmh SW 5.8 mph9.3 kmh 29.80 in1009.1 mb - 0.00 in0.0 mm 0.00 in0.0 mm
01:20 PM 85.9°F29.9°C 69.4°F20.8°C 58% 4.6 mph SW7.4 kmh SW 8.1 mph13.0 kmh 29.81 in1009.5 mb - 0.00 in0.0 mm 0.00 in0.0 mm
01:10 PM 86.3°F30.2°C 69.8°F21.0°C 58% 3.5 mph SW5.6 kmh SW 5.8 mph9.3 kmh 29.81 in1009.5 mb - 0.00 in0.0 mm 0.00 in0.0 mm
01:00 PM 85.8°F29.9°C 70.3°F21.3°C 60% 3.5 mph SW5.6 kmh SW 5.8 mph9.3 kmh 29.81 in1009.5 mb - 0.00 in0.0 mm 0.00 in0.0 mm
12:50 PM 86.0°F30.0°C 70.0°F21.1°C 59% 4.6 mph SSW7.4 kmh SSW 3.5 mph5.6 kmh 29.81 in1009.5 mb - 0.00 in0.0 mm 0.00 in0.0 mm
12:40 PM 85.4°F29.7°C 71.9°F22.2°C 64% 2.3 mph S3.7 kmh S 2.3 mph3.7 kmh 29.81 in1009.5 mb - 0.00 in0.0 mm 0.00 in0.0 mm
12:30 PM 84.3°F29.1°C 70.4°F21.3°C 63% 3.5 mph SSW5.6 kmh SSW 8.1 mph13.0 kmh 29.82 in1009.8 mb - 0.00 in0.0 mm 0.00 in0.0 mm
12:20 PM 83.5°F28.6°C 71.0°F21.7°C 66% 4.6 mph SW7.4 kmh SW 3.5 mph5.6 kmh 29.82 in1009.8 mb - 0.00 in0.0 mm 0.00 in0.0 mm
12:10 PM 83.0°F28.3°C 70.9°F21.6°C 67% 4.6 mph SSW7.4 kmh SSW 8.1 mph13.0 kmh 29.82 in1009.8 mb - 0.00 in0.0 mm 0.00 in0.0 mm
12:00 PM 82.4°F28.0°C 71.2°F21.8°C 69% 4.6 mph SW7.4 kmh SW 5.8 mph9.3 kmh 29.82 in1009.8 mb - 0.00 in0.0 mm 0.00 in0.0 mm
11:50 AM 81.1°F27.3°C 71.2°F21.8°C 72% 3.5 mph SW5.6 kmh SW 5.8 mph9.3 kmh 29.82 in1009.8 mb - 0.00 in0.0 mm 0.00 in0.0 mm
11:40 AM 80.1°F26.7°C 70.3°F21.3°C 72% 4.6 mph SSE7.4 kmh SSE 5.8 mph9.3 kmh 29.82 in1009.8 mb - 0.00 in0.0 mm 0.00 in0.0 mm
11:30 AM 79.7°F26.5°C 70.3°F21.3°C 73% 3.5 mph W5.6 kmh W 8.1 mph13.0 kmh 29.83 in1010.2 mb - 0.00 in0.0 mm 0.00 in0.0 mm
11:20 AM 79.3°F26.3°C 70.7°F21.5°C 75% 3.5 mph SSW5.6 kmh SSW 9.2 mph14.8 kmh 29.84 in1010.5 mb - 0.00 in0.0 mm 0.00 in0.0 mm
11:10 AM 78.8°F26.0°C 71.4°F21.9°C 78% 3.5 mph W5.6 kmh W 6.9 mph11.1 kmh 29.84 in1010.5 mb - 0.00 in0.0 mm 0.00 in0.0 mm
11:00 AM 78.3°F25.7°C 70.5°F21.4°C 77% 4.6 mph WSW7.4 kmh WSW 3.5 mph5.6 kmh 29.84 in1010.5 mb - 0.00 in0.0 mm 0.00 in0.0 mm
10:50 AM 77.7°F25.4°C 70.7°F21.5°C 79% 3.5 mph SW5.6 kmh SW 8.1 mph13.0 kmh 29.84 in1010.5 mb - 0.00 in0.0 mm 0.00 in0.0 mm
10:40 AM 76.8°F24.9°C 69.8°F21.0°C 79% 3.5 mph S5.6 kmh S 6.9 mph11.1 kmh 29.84 in1010.5 mb - 0.00 in0.0 mm 0.00 in0.0 mm
10:30 AM 76.5°F24.7°C 70.2°F21.2°C 81% 4.6 mph SSE7.4 kmh SSE 11.5 mph18.5 kmh 29.85 in1010.8 mb - 0.00 in0.0 mm 0.00 in0.0 mm
10:20 AM 76.2°F24.6°C 70.3°F21.3°C 82% 3.5 mph SW5.6 kmh SW 6.9 mph11.1 kmh 29.85 in1010.8 mb - 0.00 in0.0 mm 0.00 in0.0 mm
10:10 AM 75.5°F24.2°C 70.3°F21.3°C 84% 2.3 mph SSE3.7 kmh SSE 3.5 mph5.6 kmh 29.85 in1010.8 mb - 0.00 in0.0 mm 0.00 in0.0 mm
10:00 AM 75.1°F23.9°C 69.6°F20.9°C 83% 3.5 mph S5.6 kmh S 13.8 mph22.2 kmh 29.85 in1010.8 mb - 0.00 in0.0 mm 0.00 in0.0 mm
09:50 AM 74.9°F23.8°C 69.7°F20.9°C 84% 3.5 mph SSW5.6 kmh SSW 3.5 mph5.6 kmh 29.85 in1010.8 mb - 0.00 in0.0 mm 0.00 in0.0 mm
09:40 AM 74.8°F23.8°C 69.6°F20.9°C 84% 4.6 mph SW7.4 kmh SW 9.2 mph14.8 kmh 29.85 in1010.8 mb - 0.00 in0.0 mm 0.00 in0.0 mm
09:30 AM 74.3°F23.5°C 69.5°F20.8°C 85% 3.5 mph SW5.6 kmh SW 6.9 mph11.1 kmh 29.85 in1010.8 mb - 0.00 in0.0 mm 0.00 in0.0 mm
09:20 AM 73.9°F23.3°C 69.8°F21.0°C 87% 3.5 mph SW5.6 kmh SW 3.5 mph5.6 kmh 29.85 in1010.8 mb - 0.00 in0.0 mm 0.00 in0.0 mm
09:10 AM 73.0°F22.8°C 69.5°F20.8°C 89% 3.5 mph SE5.6 kmh SE 3.5 mph5.6 kmh 29.85 in1010.8 mb - 0.00 in0.0 mm 0.00 in0.0 mm
09:00 AM 71.7°F22.1°C 69.3°F20.7°C 92% 3.5 mph SSW5.6 kmh SSW 10.4 mph16.7 kmh 29.85 in1010.8 mb - 0.00 in0.0 mm 0.00 in0.0 mm
08:50 AM 71.1°F21.7°C 69.0°F20.6°C 93% 2.3 mph S3.7 kmh S 3.5 mph5.6 kmh 29.85 in1010.8 mb - 0.00 in0.0 mm 0.00 in0.0 mm
08:40 AM 70.9°F21.6°C 68.8°F20.4°C 93% 3.5 mph SE5.6 kmh SE 5.8 mph9.3 kmh 29.86 in1011.2 mb - 0.00 in0.0 mm 0.00 in0.0 mm
08:30 AM 70.7°F21.5°C 68.6°F20.3°C 93% 4.6 mph SW7.4 kmh SW 5.8 mph9.3 kmh 29.86 in1011.2 mb - 0.00 in0.0 mm 0.00 in0.0 mm
08:20 AM 70.5°F21.4°C 68.4°F20.2°C 93% 1.2 mph S1.9 kmh S 2.3 mph3.7 kmh 29.86 in1011.2 mb - 0.00 in0.0 mm 0.00 in0.0 mm
08:10 AM 70.6°F21.4°C 68.5°F20.3°C 93% 2.3 mph ESE3.7 kmh ESE 2.3 mph3.7 kmh 29.86 in1011.2 mb - 0.00 in0.0 mm 0.00 in0.0 mm
08:00 AM 70.4°F21.3°C 68.3°F20.2°C 93% 3.5 mph SSW5.6 kmh SSW 2.3 mph3.7 kmh 29.86 in1011.2 mb - 0.00 in0.0 mm 0.00 in0.0 mm
07:50 AM 69.9°F21.1°C 68.1°F20.1°C 94% 3.5 mph SW5.6 kmh SW 5.8 mph9.3 kmh 29.86 in1011.2 mb - 0.00 in0.0 mm 0.00 in0.0 mm
07:40 AM 69.5°F20.8°C 68.0°F20.0°C 95% 3.5 mph WNW5.6 kmh WNW 8.1 mph13.0 kmh 29.86 in1011.2 mb - 0.00 in0.0 mm 0.00 in0.0 mm
07:30 AM 69.0°F20.6°C 67.5°F19.7°C 95% 2.3 mph S3.7 kmh S 2.3 mph3.7 kmh 29.85 in1010.8 mb - 0.00 in0.0 mm 0.00 in0.0 mm
07:20 AM 68.7°F20.4°C 67.5°F19.7°C 96% 2.3 mph SW3.7 kmh SW 2.3 mph3.7 kmh 29.85 in1010.8 mb - 0.00 in0.0 mm 0.00 in0.0 mm
07:10 AM 68.3°F20.2°C 67.4°F19.7°C 97% 2.3 mph SW3.7 kmh SW 2.3 mph3.7 kmh 29.85 in1010.8 mb - 0.00 in0.0 mm 0.00 in0.0 mm
07:00 AM 67.9°F19.9°C 67.0°F19.4°C 97% 2.3 mph SSW3.7 kmh SSW 2.3 mph3.7 kmh 29.85 in1010.8 mb - 0.00 in0.0 mm 0.00 in0.0 mm
06:50 AM 67.6°F19.8°C 67.0°F19.4°C 98% 1.2 mph SSE1.9 kmh SSE 2.3 mph3.7 kmh 29.85 in1010.8 mb - 0.00 in0.0 mm 0.00 in0.0 mm
06:40 AM 67.5°F19.7°C 66.9°F19.4°C 98% 1.2 mph W1.9 kmh W 2.3 mph3.7 kmh 29.85 in1010.8 mb - 0.00 in0.0 mm 0.00 in0.0 mm
06:30 AM 67.7°F19.8°C 66.8°F19.3°C 97% Calm Calm -- 29.86 in1011.2 mb - 0.00 in0.0 mm 0.00 in0.0 mm
06:20 AM 67.8°F19.9°C 66.9°F19.4°C 97% Calm Calm 1.2 mph1.9 kmh 29.86 in1011.2 mb - 0.00 in0.0 mm 0.00 in0.0 mm
06:10 AM 67.9°F19.9°C 66.7°F19.3°C 96% 1.2 mph S1.9 kmh S 2.3 mph3.7 kmh 29.86 in1011.2 mb - 0.00 in0.0 mm 0.00 in0.0 mm
06:00 AM 67.9°F19.9°C 66.7°F19.3°C 96% 2.3 mph S3.7 kmh S 2.3 mph3.7 kmh 29.86 in1011.2 mb - 0.00 in0.0 mm 0.00 in0.0 mm
05:50 AM 67.9°F19.9°C 66.7°F19.3°C 96% Calm Calm 2.3 mph3.7 kmh 29.86 in1011.2 mb - 0.00 in0.0 mm 0.00 in0.0 mm
05:40 AM 67.9°F19.9°C 66.7°F19.3°C 96% 1.2 mph WSW1.9 kmh WSW 2.3 mph3.7 kmh 29.85 in1010.8 mb - 0.00 in0.0 mm 0.00 in0.0 mm
05:30 AM 67.9°F19.9°C 66.4°F19.1°C 95% 2.3 mph S3.7 kmh S 2.3 mph3.7 kmh 29.86 in1011.2 mb - 0.00 in0.0 mm 0.00 in0.0 mm
05:20 AM 67.8°F19.9°C 66.6°F19.2°C 96% 2.3 mph SW3.7 kmh SW 2.3 mph3.7 kmh 29.86 in1011.2 mb - 0.00 in0.0 mm 0.00 in0.0 mm
05:10 AM 67.7°F19.8°C 66.5°F19.2°C 96% 3.5 mph SW5.6 kmh SW 2.3 mph3.7 kmh 29.86 in1011.2 mb - 0.00 in0.0 mm 0.00 in0.0 mm
05:00 AM 67.6°F19.8°C 66.4°F19.1°C 96% Calm Calm -- 29.86 in1011.2 mb - 0.00 in0.0 mm 0.00 in0.0 mm
04:50 AM 67.6°F19.8°C 66.4°F19.1°C 96% 1.2 mph S1.9 kmh S 5.8 mph9.3 kmh 29.87 in1011.5 mb - 0.00 in0.0 mm 0.00 in0.0 mm
04:40 AM 67.6°F19.8°C 66.4°F19.1°C 96% 2.3 mph SSE3.7 kmh SSE 2.3 mph3.7 kmh 29.87 in1011.5 mb - 0.00 in0.0 mm 0.00 in0.0 mm
04:30 AM 67.5°F19.7°C 66.3°F19.1°C 96% 2.3 mph SSE3.7 kmh SSE 2.3 mph3.7 kmh 29.87 in1011.5 mb - 0.00 in0.0 mm 0.00 in0.0 mm
04:20 AM 67.5°F19.7°C 66.3°F19.1°C 96% 1.2 mph S1.9 kmh S 3.5 mph5.6 kmh 29.87 in1011.5 mb - 0.00 in0.0 mm 0.00 in0.0 mm
04:10 AM 67.6°F19.8°C 66.4°F19.1°C 96% 1.2 mph SE1.9 kmh SE 2.3 mph3.7 kmh 29.87 in1011.5 mb - 0.00 in0.0 mm 0.00 in0.0 mm
04:00 AM 67.6°F19.8°C 66.5°F19.2°C 96% 1.2 mph SE1.9 kmh SE 2.3 mph3.7 kmh 29.87 in1011.5 mb - 0.00 in0.0 mm 0.00 in0.0 mm
03:50 AM 67.7°F19.8°C 66.5°F19.2°C 96% 3.5 mph SSW5.6 kmh SSW 5.8 mph9.3 kmh 29.87 in1011.5 mb - 0.00 in0.0 mm 0.00 in0.0 mm
03:40 AM 67.7°F19.8°C 66.5°F19.2°C 96% 1.2 mph SW1.9 kmh SW 2.3 mph3.7 kmh 29.87 in1011.5 mb - 0.00 in0.0 mm 0.00 in0.0 mm
03:30 AM 67.7°F19.8°C 66.2°F19.0°C 95% 1.2 mph SW1.9 kmh SW 2.3 mph3.7 kmh 29.88 in1011.9 mb - 0.00 in0.0 mm 0.00 in0.0 mm
03:20 AM 67.8°F19.9°C 66.3°F19.1°C 95% 2.3 mph SSW3.7 kmh SSW 2.3 mph3.7 kmh 29.88 in1011.9 mb - 0.00 in0.0 mm 0.00 in0.0 mm
03:10 AM 67.7°F19.8°C 66.2°F19.0°C 95% 1.2 mph SW1.9 kmh SW 2.3 mph3.7 kmh 29.88 in1011.9 mb - 0.00 in0.0 mm 0.00 in0.0 mm
03:00 AM 67.7°F19.8°C 66.2°F19.0°C 95% 2.3 mph SSW3.7 kmh SSW 5.8 mph9.3 kmh 29.89 in1012.2 mb - 0.00 in0.0 mm 0.00 in0.0 mm
02:50 AM 67.7°F19.8°C 66.2°F19.0°C 95% 2.3 mph SSE3.7 kmh SSE 2.3 mph3.7 kmh 29.89 in1012.2 mb - 0.00 in0.0 mm 0.00 in0.0 mm
02:40 AM 67.4°F19.7°C 65.9°F18.8°C 95% 1.2 mph SW1.9 kmh SW 2.3 mph3.7 kmh 29.89 in1012.2 mb - 0.00 in0.0 mm 0.00 in0.0 mm
02:30 AM 67.2°F19.6°C 65.7°F18.7°C 95% 1.2 mph SW1.9 kmh SW 5.8 mph9.3 kmh 29.89 in1012.2 mb - 0.00 in0.0 mm 0.00 in0.0 mm
02:20 AM 66.8°F19.3°C 65.6°F18.7°C 96% 1.2 mph SW1.9 kmh SW 2.3 mph3.7 kmh 29.89 in1012.2 mb - 0.00 in0.0 mm 0.00 in0.0 mm
02:10 AM 66.3°F19.1°C 65.1°F18.4°C 96% Calm Calm 1.2 mph1.9 kmh 29.90 in1012.5 mb - 0.00 in0.0 mm 0.00 in0.0 mm
02:00 AM 66.5°F19.2°C 65.1°F18.4°C 95% Calm Calm -- 29.90 in1012.5 mb - 0.00 in0.0 mm 0.00 in0.0 mm
01:50 AM 66.5°F19.2°C 65.0°F18.3°C 95% 1.2 mph SSE1.9 kmh SSE -- 29.91 in1012.9 mb - 0.00 in0.0 mm 0.00 in0.0 mm
01:40 AM 66.2°F19.0°C 64.4°F18.0°C 94% 3.5 mph SW5.6 kmh SW 5.8 mph9.3 kmh 29.91 in1012.9 mb - 0.00 in0.0 mm 0.00 in0.0 mm
01:30 AM 66.1°F18.9°C 64.3°F17.9°C 94% Calm Calm -- 29.91 in1012.9 mb - 0.00 in0.0 mm 0.00 in0.0 mm
01:20 AM 66.2°F19.0°C 64.1°F17.8°C 93% 1.2 mph SE1.9 kmh SE 1.2 mph1.9 kmh 29.92 in1013.2 mb - 0.00 in0.0 mm 0.00 in0.0 mm
01:10 AM 66.3°F19.1°C 64.2°F17.9°C 93% 1.2 mph S1.9 kmh S 2.3 mph3.7 kmh 29.92 in1013.2 mb - 0.00 in0.0 mm 0.00 in0.0 mm
01:00 AM 65.9°F18.8°C 63.2°F17.3°C 91% 1.2 mph N1.9 kmh N 2.3 mph3.7 kmh 29.92 in1013.2 mb - 0.00 in0.0 mm 0.00 in0.0 mm
12:50 AM 65.9°F18.8°C 63.2°F17.3°C 91% Calm Calm -- 29.92 in1013.2 mb - 0.00 in0.0 mm 0.00 in0.0 mm
12:40 AM 66.1°F18.9°C 63.1°F17.3°C 90% Calm Calm 1.2 mph1.9 kmh 29.92 in1013.2 mb - 0.00 in0.0 mm 0.00 in0.0 mm
12:30 AM 66.2°F19.0°C 63.2°F17.3°C 90% Calm Calm -- 29.93 in1013.5 mb - 0.00 in0.0 mm 0.00 in0.0 mm
12:20 AM 66.5°F19.2°C 62.9°F17.2°C 88% Calm Calm 1.2 mph1.9 kmh 29.93 in1013.5 mb - 0.00 in0.0 mm 0.00 in0.0 mm
12:10 AM 66.7°F19.3°C 63.1°F17.3°C 88% Calm Calm 1.2 mph1.9 kmh 29.93 in1013.5 mb - 0.00 in0.0 mm 0.00 in0.0 mm
12:00 AM 66.9°F19.4°C 62.9°F17.2°C 87% 1.2 mph SE1.9 kmh SE 1.2 mph1.9 kmh 29.93 in1013.5 mb - 0.00 in0.0 mm 0.00 in0.0 mm